sensor_id;sensor_type;location;lat;lon;timestamp;P1;durP1;ratioP1;P2;durP2;ratioP2
50393;SDS011;36308;46.312;25.288;2022-12-10T00:00:06;60.55;;;32.15;;
50393;SDS011;36308;46.312;25.288;2022-12-10T00:02:31;56.33;;;30.98;;
50393;SDS011;36308;46.312;25.288;2022-12-10T00:04:57;52.85;;;28.48;;
50393;SDS011;36308;46.312;25.288;2022-12-10T00:07:22;50.35;;;24.60;;
50393;SDS011;36308;46.312;25.288;2022-12-10T00:09:48;44.42;;;25.25;;
50393;SDS011;36308;46.312;25.288;2022-12-10T00:12:13;44.85;;;24.58;;
50393;SDS011;36308;46.312;25.288;2022-12-10T00:14:39;48.35;;;25.13;;
50393;SDS011;36308;46.312;25.288;2022-12-10T00:17:04;44.35;;;23.50;;
50393;SDS011;36308;46.312;25.288;2022-12-10T00:19:30;49.28;;;26.33;;
50393;SDS011;36308;46.312;25.288;2022-12-10T00:21:56;45.20;;;22.90;;
50393;SDS011;36308;46.312;25.288;2022-12-10T00:24:24;43.47;;;21.58;;
50393;SDS011;36308;46.312;25.288;2022-12-10T00:26:50;40.85;;;21.73;;
50393;SDS011;36308;46.312;25.288;2022-12-10T00:29:15;36.67;;;21.60;;
50393;SDS011;36308;46.312;25.288;2022-12-10T00:31:41;44.60;;;22.38;;
50393;SDS011;36308;46.312;25.288;2022-12-10T00:34:07;36.58;;;20.15;;
50393;SDS011;36308;46.312;25.288;2022-12-10T00:36:36;44.65;;;25.63;;
50393;SDS011;36308;46.312;25.288;2022-12-10T00:39:04;42.97;;;22.50;;
50393;SDS011;36308;46.312;25.288;2022-12-10T00:41:30;48.95;;;25.10;;
50393;SDS011;36308;46.312;25.288;2022-12-10T00:43:56;46.90;;;25.27;;
50393;SDS011;36308;46.312;25.288;2022-12-10T00:46:21;46.08;;;23.15;;
50393;SDS011;36308;46.312;25.288;2022-12-10T00:48:47;44.63;;;24.77;;
50393;SDS011;36308;46.312;25.288;2022-12-10T00:51:14;46.40;;;23.92;;
50393;SDS011;36308;46.312;25.288;2022-12-10T00:53:44;55.38;;;25.30;;
50393;SDS011;36308;46.312;25.288;2022-12-10T00:56:11;52.65;;;27.23;;
50393;SDS011;36308;46.312;25.288;2022-12-10T00:58:38;51.63;;;25.45;;
50393;SDS011;36308;46.312;25.288;2022-12-10T01:01:08;46.00;;;24.02;;
50393;SDS011;36308;46.312;25.288;2022-12-10T01:03:37;45.60;;;21.65;;
50393;SDS011;36308;46.312;25.288;2022-12-10T01:06:20;43.25;;;20.98;;
50393;SDS011;36308;46.312;25.288;2022-12-10T01:08:48;36.38;;;20.65;;
50393;SDS011;36308;46.312;25.288;2022-12-10T01:11:16;41.90;;;20.70;;
50393;SDS011;36308;46.312;25.288;2022-12-10T01:13:44;36.47;;;19.33;;
50393;SDS011;36308;46.312;25.288;2022-12-10T01:16:11;33.50;;;18.67;;
50393;SDS011;36308;46.312;25.288;2022-12-10T01:18:37;34.33;;;17.75;;
50393;SDS011;36308;46.312;25.288;2022-12-10T01:21:05;32.47;;;17.02;;
50393;SDS011;36308;46.312;25.288;2022-12-10T01:23:36;30.98;;;15.80;;
50393;SDS011;36308;46.312;25.288;2022-12-10T01:26:05;35.08;;;16.85;;
50393;SDS011;36308;46.312;25.288;2022-12-10T01:28:32;40.72;;;20.33;;
50393;SDS011;36308;46.312;25.288;2022-12-10T01:31:00;32.05;;;14.57;;
50393;SDS011;36308;46.312;25.288;2022-12-10T01:33:31;29.10;;;14.15;;
50393;SDS011;36308;46.312;25.288;2022-12-10T01:36:08;34.03;;;15.48;;
50393;SDS011;36308;46.312;25.288;2022-12-10T01:38:39;41.28;;;20.48;;
50393;SDS011;36308;46.312;25.288;2022-12-10T01:41:06;40.10;;;19.23;;
50393;SDS011;36308;46.312;25.288;2022-12-10T01:46:25;39.40;;;17.88;;
50393;SDS011;36308;46.312;25.288;2022-12-10T01:48:55;42.47;;;17.90;;
50393;SDS011;36308;46.312;25.288;2022-12-10T01:51:23;45.58;;;19.60;;
50393;SDS011;36308;46.312;25.288;2022-12-10T01:53:50;41.95;;;17.60;;
50393;SDS011;36308;46.312;25.288;2022-12-10T01:56:19;39.10;;;17.25;;
50393;SDS011;36308;46.312;25.288;2022-12-10T01:58:45;41.45;;;17.60;;
50393;SDS011;36308;46.312;25.288;2022-12-10T02:01:35;38.63;;;15.77;;
50393;SDS011;36308;46.312;25.288;2022-12-10T02:04:07;34.75;;;16.02;;
50393;SDS011;36308;46.312;25.288;2022-12-10T02:17:29;24.92;;;11.45;;
50393;SDS011;36308;46.312;25.288;2022-12-10T02:20:06;27.33;;;11.32;;
50393;SDS011;36308;46.312;25.288;2022-12-10T02:22:34;29.77;;;13.32;;
50393;SDS011;36308;46.312;25.288;2022-12-10T02:25:06;36.67;;;14.95;;
50393;SDS011;36308;46.312;25.288;2022-12-10T02:27:42;28.30;;;14.02;;
50393;SDS011;36308;46.312;25.288;2022-12-10T02:30:14;31.77;;;14.38;;
50393;SDS011;36308;46.312;25.288;2022-12-10T02:32:40;31.75;;;13.98;;
50393;SDS011;36308;46.312;25.288;2022-12-10T02:35:09;27.67;;;12.98;;
50393;SDS011;36308;46.312;25.288;2022-12-10T02:37:43;26.45;;;11.60;;
50393;SDS011;36308;46.312;25.288;2022-12-10T02:40:23;26.65;;;13.50;;
50393;SDS011;36308;46.312;25.288;2022-12-10T02:42:53;30.27;;;13.05;;
50393;SDS011;36308;46.312;25.288;2022-12-10T02:45:20;28.23;;;12.00;;
50393;SDS011;36308;46.312;25.288;2022-12-10T02:47:48;28.33;;;12.68;;
50393;SDS011;36308;46.312;25.288;2022-12-10T02:50:15;28.25;;;11.98;;
50393;SDS011;36308;46.312;25.288;2022-12-10T02:52:43;27.80;;;12.82;;
50393;SDS011;36308;46.312;25.288;2022-12-10T02:55:13;30.52;;;14.85;;
50393;SDS011;36308;46.312;25.288;2022-12-10T03:01:02;37.10;;;17.25;;
50393;SDS011;36308;46.312;25.288;2022-12-10T03:03:38;30.45;;;16.58;;
50393;SDS011;36308;46.312;25.288;2022-12-10T03:06:32;35.13;;;16.15;;
50393;SDS011;36308;46.312;25.288;2022-12-10T03:09:12;22.10;;;11.77;;
50393;SDS011;36308;46.312;25.288;2022-12-10T03:11:45;23.55;;;11.73;;
50393;SDS011;36308;46.312;25.288;2022-12-10T03:16:51;26.20;;;13.05;;
50393;SDS011;36308;46.312;25.288;2022-12-10T03:19:23;23.60;;;11.68;;
50393;SDS011;36308;46.312;25.288;2022-12-10T03:21:53;29.13;;;12.32;;
50393;SDS011;36308;46.312;25.288;2022-12-10T03:24:21;28.20;;;12.68;;
50393;SDS011;36308;46.312;25.288;2022-12-10T03:26:48;28.30;;;13.10;;
50393;SDS011;36308;46.312;25.288;2022-12-10T03:29:29;22.35;;;12.30;;
50393;SDS011;36308;46.312;25.288;2022-12-10T03:31:58;26.17;;;11.82;;
50393;SDS011;36308;46.312;25.288;2022-12-10T03:34:25;20.75;;;10.93;;
50393;SDS011;36308;46.312;25.288;2022-12-10T03:36:51;26.15;;;12.13;;
50393;SDS011;36308;46.312;25.288;2022-12-10T03:39:18;27.70;;;11.70;;
50393;SDS011;36308;46.312;25.288;2022-12-10T03:41:44;22.50;;;11.35;;
50393;SDS011;36308;46.312;25.288;2022-12-10T03:44:09;21.95;;;11.32;;
50393;SDS011;36308;46.312;25.288;2022-12-10T03:46:35;22.35;;;10.30;;
50393;SDS011;36308;46.312;25.288;2022-12-10T03:49:01;27.13;;;12.10;;
50393;SDS011;36308;46.312;25.288;2022-12-10T03:51:27;24.83;;;13.18;;
50393;SDS011;36308;46.312;25.288;2022-12-10T03:53:53;27.33;;;14.85;;
50393;SDS011;36308;46.312;25.288;2022-12-10T03:56:19;28.05;;;15.38;;
50393;SDS011;36308;46.312;25.288;2022-12-10T03:58:45;29.50;;;14.95;;
50393;SDS011;36308;46.312;25.288;2022-12-10T04:01:11;27.20;;;14.55;;
50393;SDS011;36308;46.312;25.288;2022-12-10T04:03:40;28.27;;;14.35;;
50393;SDS011;36308;46.312;25.288;2022-12-10T04:06:08;29.77;;;15.68;;
50393;SDS011;36308;46.312;25.288;2022-12-10T04:08:40;24.60;;;13.63;;
50393;SDS011;36308;46.312;25.288;2022-12-10T04:11:07;24.23;;;12.98;;
50393;SDS011;36308;46.312;25.288;2022-12-10T04:13:34;28.45;;;13.38;;
50393;SDS011;36308;46.312;25.288;2022-12-10T04:16:20;26.98;;;13.07;;
50393;SDS011;36308;46.312;25.288;2022-12-10T04:18:53;30.05;;;14.48;;
50393;SDS011;36308;46.312;25.288;2022-12-10T04:21:20;36.88;;;16.38;;
50393;SDS011;36308;46.312;25.288;2022-12-10T04:24:04;26.58;;;15.95;;
50393;SDS011;36308;46.312;25.288;2022-12-10T04:26:48;32.03;;;14.15;;
50393;SDS011;36308;46.312;25.288;2022-12-10T04:29:17;33.47;;;16.23;;
50393;SDS011;36308;46.312;25.288;2022-12-10T04:31:43;32.45;;;16.27;;
50393;SDS011;36308;46.312;25.288;2022-12-10T04:34:09;38.05;;;18.90;;
50393;SDS011;36308;46.312;25.288;2022-12-10T04:36:34;32.85;;;18.63;;
50393;SDS011;36308;46.312;25.288;2022-12-10T04:39:00;35.92;;;16.83;;
50393;SDS011;36308;46.312;25.288;2022-12-10T04:41:25;38.97;;;21.13;;
50393;SDS011;36308;46.312;25.288;2022-12-10T04:43:51;44.38;;;25.23;;
50393;SDS011;36308;46.312;25.288;2022-12-10T04:46:17;47.60;;;24.50;;
50393;SDS011;36308;46.312;25.288;2022-12-10T04:48:43;41.95;;;23.63;;
50393;SDS011;36308;46.312;25.288;2022-12-10T04:51:08;43.80;;;23.02;;
50393;SDS011;36308;46.312;25.288;2022-12-10T04:53:34;42.00;;;24.17;;
50393;SDS011;36308;46.312;25.288;2022-12-10T04:55:59;39.35;;;22.80;;
50393;SDS011;36308;46.312;25.288;2022-12-10T04:58:26;39.42;;;24.05;;
50393;SDS011;36308;46.312;25.288;2022-12-10T05:01:05;42.38;;;26.17;;
50393;SDS011;36308;46.312;25.288;2022-12-10T05:03:32;48.17;;;28.67;;
50393;SDS011;36308;46.312;25.288;2022-12-10T05:06:02;57.55;;;28.80;;
50393;SDS011;36308;46.312;25.288;2022-12-10T05:08:29;55.75;;;30.05;;
50393;SDS011;36308;46.312;25.288;2022-12-10T05:10:55;52.40;;;30.38;;
50393;SDS011;36308;46.312;25.288;2022-12-10T05:13:25;50.40;;;28.38;;
50393;SDS011;36308;46.312;25.288;2022-12-10T05:15:51;52.50;;;31.23;;
50393;SDS011;36308;46.312;25.288;2022-12-10T05:18:16;56.72;;;31.95;;
50393;SDS011;36308;46.312;25.288;2022-12-10T05:20:42;46.72;;;29.48;;
50393;SDS011;36308;46.312;25.288;2022-12-10T05:23:08;57.58;;;35.25;;
50393;SDS011;36308;46.312;25.288;2022-12-10T05:25:57;57.80;;;31.65;;
50393;SDS011;36308;46.312;25.288;2022-12-10T05:28:44;42.80;;;25.90;;
50393;SDS011;36308;46.312;25.288;2022-12-10T05:31:18;43.15;;;25.35;;
50393;SDS011;36308;46.312;25.288;2022-12-10T05:33:54;46.97;;;27.02;;
50393;SDS011;36308;46.312;25.288;2022-12-10T05:36:22;42.30;;;27.55;;
50393;SDS011;36308;46.312;25.288;2022-12-10T05:38:50;39.90;;;23.15;;
50393;SDS011;36308;46.312;25.288;2022-12-10T05:41:18;34.78;;;22.08;;
50393;SDS011;36308;46.312;25.288;2022-12-10T05:43:45;36.42;;;19.50;;
50393;SDS011;36308;46.312;25.288;2022-12-10T05:46:12;29.88;;;15.90;;
50393;SDS011;36308;46.312;25.288;2022-12-10T05:48:39;28.80;;;16.45;;
50393;SDS011;36308;46.312;25.288;2022-12-10T05:51:07;29.70;;;17.80;;
50393;SDS011;36308;46.312;25.288;2022-12-10T05:53:35;39.72;;;23.95;;
50393;SDS011;36308;46.312;25.288;2022-12-10T05:56:04;45.33;;;29.45;;
50393;SDS011;36308;46.312;25.288;2022-12-10T05:58:32;46.75;;;26.75;;
50393;SDS011;36308;46.312;25.288;2022-12-10T06:00:59;42.63;;;27.58;;
50393;SDS011;36308;46.312;25.288;2022-12-10T06:03:26;46.05;;;28.45;;
50393;SDS011;36308;46.312;25.288;2022-12-10T06:05:52;39.47;;;26.40;;
50393;SDS011;36308;46.312;25.288;2022-12-10T06:08:19;48.53;;;28.58;;
50393;SDS011;36308;46.312;25.288;2022-12-10T06:10:44;53.03;;;30.65;;
50393;SDS011;36308;46.312;25.288;2022-12-10T06:13:10;46.22;;;25.13;;
50393;SDS011;36308;46.312;25.288;2022-12-10T06:15:38;46.08;;;27.15;;
50393;SDS011;36308;46.312;25.288;2022-12-10T06:18:06;43.50;;;27.42;;
50393;SDS011;36308;46.312;25.288;2022-12-10T06:20:32;45.20;;;26.58;;
50393;SDS011;36308;46.312;25.288;2022-12-10T06:22:57;44.33;;;23.33;;
50393;SDS011;36308;46.312;25.288;2022-12-10T06:25:23;36.97;;;20.35;;
50393;SDS011;36308;46.312;25.288;2022-12-10T06:27:48;36.08;;;21.98;;
50393;SDS011;36308;46.312;25.288;2022-12-10T06:30:14;37.05;;;21.73;;
50393;SDS011;36308;46.312;25.288;2022-12-10T06:32:39;36.47;;;21.17;;
50393;SDS011;36308;46.312;25.288;2022-12-10T06:35:05;34.38;;;18.65;;
50393;SDS011;36308;46.312;25.288;2022-12-10T06:37:31;48.65;;;26.77;;
50393;SDS011;36308;46.312;25.288;2022-12-10T06:39:56;47.13;;;25.95;;
50393;SDS011;36308;46.312;25.288;2022-12-10T06:42:22;39.45;;;22.10;;
50393;SDS011;36308;46.312;25.288;2022-12-10T06:44:47;31.98;;;18.90;;
50393;SDS011;36308;46.312;25.288;2022-12-10T06:47:13;30.52;;;17.75;;
50393;SDS011;36308;46.312;25.288;2022-12-10T06:52:09;32.25;;;18.88;;
50393;SDS011;36308;46.312;25.288;2022-12-10T06:54:34;27.58;;;17.25;;
50393;SDS011;36308;46.312;25.288;2022-12-10T06:57:00;35.88;;;23.40;;
50393;SDS011;36308;46.312;25.288;2022-12-10T06:59:25;64.95;;;43.38;;
50393;SDS011;36308;46.312;25.288;2022-12-10T07:01:51;95.70;;;55.97;;
50393;SDS011;36308;46.312;25.288;2022-12-10T07:04:17;58.53;;;32.90;;
50393;SDS011;36308;46.312;25.288;2022-12-10T07:06:43;43.35;;;24.70;;
50393;SDS011;36308;46.312;25.288;2022-12-10T07:09:08;41.92;;;25.65;;
50393;SDS011;36308;46.312;25.288;2022-12-10T07:11:34;71.90;;;40.10;;
50393;SDS011;36308;46.312;25.288;2022-12-10T07:14:00;96.93;;;56.70;;
50393;SDS011;36308;46.312;25.288;2022-12-10T07:16:27;64.65;;;38.88;;
50393;SDS011;36308;46.312;25.288;2022-12-10T07:18:55;55.47;;;32.45;;
50393;SDS011;36308;46.312;25.288;2022-12-10T07:21:23;51.65;;;30.10;;
50393;SDS011;36308;46.312;25.288;2022-12-10T07:23:51;57.05;;;33.80;;
50393;SDS011;36308;46.312;25.288;2022-12-10T07:26:18;56.50;;;35.60;;
50393;SDS011;36308;46.312;25.288;2022-12-10T07:28:44;114.22;;;63.45;;
50393;SDS011;36308;46.312;25.288;2022-12-10T07:31:10;118.60;;;73.65;;
50393;SDS011;36308;46.312;25.288;2022-12-10T07:33:36;112.10;;;72.10;;
50393;SDS011;36308;46.312;25.288;2022-12-10T07:36:03;120.20;;;75.72;;
50393;SDS011;36308;46.312;25.288;2022-12-10T07:38:33;125.47;;;78.72;;
50393;SDS011;36308;46.312;25.288;2022-12-10T07:41:03;134.75;;;87.03;;
50393;SDS011;36308;46.312;25.288;2022-12-10T07:43:29;129.60;;;83.47;;
50393;SDS011;36308;46.312;25.288;2022-12-10T07:52:38;89.78;;;58.17;;
50393;SDS011;36308;46.312;25.288;2022-12-10T07:55:04;86.88;;;57.50;;
50393;SDS011;36308;46.312;25.288;2022-12-10T07:57:30;100.32;;;62.63;;
50393;SDS011;36308;46.312;25.288;2022-12-10T08:03:18;70.97;;;44.85;;
50393;SDS011;36308;46.312;25.288;2022-12-10T08:05:43;80.22;;;47.17;;
50393;SDS011;36308;46.312;25.288;2022-12-10T08:08:09;72.05;;;43.22;;
50393;SDS011;36308;46.312;25.288;2022-12-10T08:10:36;65.30;;;41.15;;
50393;SDS011;36308;46.312;25.288;2022-12-10T08:13:02;65.25;;;41.40;;
50393;SDS011;36308;46.312;25.288;2022-12-10T08:15:28;59.83;;;37.83;;
50393;SDS011;36308;46.312;25.288;2022-12-10T08:17:54;61.40;;;36.25;;
50393;SDS011;36308;46.312;25.288;2022-12-10T08:20:20;61.33;;;36.70;;
50393;SDS011;36308;46.312;25.288;2022-12-10T08:22:47;60.45;;;39.05;;
50393;SDS011;36308;46.312;25.288;2022-12-10T08:25:12;70.80;;;41.65;;
50393;SDS011;36308;46.312;25.288;2022-12-10T08:27:38;62.70;;;39.40;;
50393;SDS011;36308;46.312;25.288;2022-12-10T08:30:03;65.70;;;41.10;;
50393;SDS011;36308;46.312;25.288;2022-12-10T08:32:29;61.60;;;36.33;;
50393;SDS011;36308;46.312;25.288;2022-12-10T08:34:55;63.83;;;37.85;;
50393;SDS011;36308;46.312;25.288;2022-12-10T08:37:21;60.45;;;39.15;;
50393;SDS011;36308;46.312;25.288;2022-12-10T08:39:47;64.05;;;41.92;;
50393;SDS011;36308;46.312;25.288;2022-12-10T08:42:12;70.20;;;42.25;;
50393;SDS011;36308;46.312;25.288;2022-12-10T08:44:38;77.85;;;44.53;;
50393;SDS011;36308;46.312;25.288;2022-12-10T08:47:03;66.43;;;42.20;;
50393;SDS011;36308;46.312;25.288;2022-12-10T08:49:29;71.85;;;42.83;;
50393;SDS011;36308;46.312;25.288;2022-12-10T08:51:55;76.70;;;45.97;;
50393;SDS011;36308;46.312;25.288;2022-12-10T08:54:21;83.20;;;47.22;;
50393;SDS011;36308;46.312;25.288;2022-12-10T08:56:46;113.03;;;63.85;;
50393;SDS011;36308;46.312;25.288;2022-12-10T08:59:12;105.97;;;65.05;;
50393;SDS011;36308;46.312;25.288;2022-12-10T09:01:38;104.03;;;64.65;;
50393;SDS011;36308;46.312;25.288;2022-12-10T09:04:03;110.22;;;67.30;;
50393;SDS011;36308;46.312;25.288;2022-12-10T09:06:29;98.32;;;64.40;;
50393;SDS011;36308;46.312;25.288;2022-12-10T09:08:55;114.13;;;76.55;;
50393;SDS011;36308;46.312;25.288;2022-12-10T09:11:23;135.15;;;90.43;;
50393;SDS011;36308;46.312;25.288;2022-12-10T09:13:51;152.13;;;99.57;;
50393;SDS011;36308;46.312;25.288;2022-12-10T09:19:38;141.93;;;94.05;;
50393;SDS011;36308;46.312;25.288;2022-12-10T09:22:04;131.65;;;86.22;;
50393;SDS011;36308;46.312;25.288;2022-12-10T09:30:35;119.82;;;75.97;;
50393;SDS011;36308;46.312;25.288;2022-12-10T09:33:01;119.93;;;80.57;;
50393;SDS011;36308;46.312;25.288;2022-12-10T09:35:27;124.57;;;80.20;;
50393;SDS011;36308;46.312;25.288;2022-12-10T09:37:53;121.82;;;82.10;;
50393;SDS011;36308;46.312;25.288;2022-12-10T09:40:20;128.35;;;84.47;;
50393;SDS011;36308;46.312;25.288;2022-12-10T09:42:56;118.38;;;76.93;;
50393;SDS011;36308;46.312;25.288;2022-12-10T09:51:13;106.15;;;68.60;;
50393;SDS011;36308;46.312;25.288;2022-12-10T09:53:54;79.25;;;46.55;;
50393;SDS011;36308;46.312;25.288;2022-12-10T09:56:29;85.30;;;55.38;;
50393;SDS011;36308;46.312;25.288;2022-12-10T09:59:00;99.68;;;65.47;;
50393;SDS011;36308;46.312;25.288;2022-12-10T10:01:33;109.90;;;69.07;;
50393;SDS011;36308;46.312;25.288;2022-12-10T10:04:00;110.28;;;69.55;;
50393;SDS011;36308;46.312;25.288;2022-12-10T10:06:28;124.72;;;78.90;;
50393;SDS011;36308;46.312;25.288;2022-12-10T10:08:55;114.45;;;73.20;;
50393;SDS011;36308;46.312;25.288;2022-12-10T10:11:28;114.30;;;71.72;;
50393;SDS011;36308;46.312;25.288;2022-12-10T10:14:00;109.43;;;73.93;;
50393;SDS011;36308;46.312;25.288;2022-12-10T10:16:51;117.82;;;77.82;;
50393;SDS011;36308;46.312;25.288;2022-12-10T10:19:30;143.77;;;92.13;;
50393;SDS011;36308;46.312;25.288;2022-12-10T10:21:59;135.95;;;93.50;;
50393;SDS011;36308;46.312;25.288;2022-12-10T10:24:32;126.97;;;87.45;;
50393;SDS011;36308;46.312;25.288;2022-12-10T10:27:22;120.63;;;80.68;;
50393;SDS011;36308;46.312;25.288;2022-12-10T10:29:49;132.25;;;85.03;;
50393;SDS011;36308;46.312;25.288;2022-12-10T10:32:22;126.63;;;87.55;;
50393;SDS011;36308;46.312;25.288;2022-12-10T10:34:54;107.30;;;73.72;;
50393;SDS011;36308;46.312;25.288;2022-12-10T10:37:26;99.40;;;70.20;;
50393;SDS011;36308;46.312;25.288;2022-12-10T10:40:03;98.35;;;68.93;;
50393;SDS011;36308;46.312;25.288;2022-12-10T10:45:06;101.65;;;69.68;;
50393;SDS011;36308;46.312;25.288;2022-12-10T10:48:03;90.20;;;60.67;;
50393;SDS011;36308;46.312;25.288;2022-12-10T10:51:20;86.68;;;57.90;;
50393;SDS011;36308;46.312;25.288;2022-12-10T10:56:40;98.70;;;65.85;;
50393;SDS011;36308;46.312;25.288;2022-12-10T11:01:26;95.03;;;66.75;;
50393;SDS011;36308;46.312;25.288;2022-12-10T11:04:20;93.70;;;64.22;;
50393;SDS011;36308;46.312;25.288;2022-12-10T11:06:55;91.68;;;60.92;;
50393;SDS011;36308;46.312;25.288;2022-12-10T11:09:26;94.28;;;59.97;;
50393;SDS011;36308;46.312;25.288;2022-12-10T11:12:04;82.78;;;55.15;;
50393;SDS011;36308;46.312;25.288;2022-12-10T11:14:48;82.78;;;55.03;;
50393;SDS011;36308;46.312;25.288;2022-12-10T11:17:20;81.50;;;55.20;;
50393;SDS011;36308;46.312;25.288;2022-12-10T11:19:56;93.90;;;61.78;;
50393;SDS011;36308;46.312;25.288;2022-12-10T11:22:29;93.93;;;60.85;;
50393;SDS011;36308;46.312;25.288;2022-12-10T11:24:58;90.10;;;62.33;;
50393;SDS011;36308;46.312;25.288;2022-12-10T11:30:29;115.70;;;77.55;;
50393;SDS011;36308;46.312;25.288;2022-12-10T11:35:50;114.85;;;81.65;;
50393;SDS011;36308;46.312;25.288;2022-12-10T11:41:43;117.00;;;81.40;;
50393;SDS011;36308;46.312;25.288;2022-12-10T11:47:26;113.45;;;77.30;;
50393;SDS011;36308;46.312;25.288;2022-12-10T11:50:31;113.72;;;78.30;;
50393;SDS011;36308;46.312;25.288;2022-12-10T11:53:07;100.97;;;72.03;;
50393;SDS011;36308;46.312;25.288;2022-12-10T12:00:47;109.43;;;76.05;;
50393;SDS011;36308;46.312;25.288;2022-12-10T12:07:00;104.07;;;71.60;;
50393;SDS011;36308;46.312;25.288;2022-12-10T12:15:34;91.43;;;61.35;;
50393;SDS011;36308;46.312;25.288;2022-12-10T12:20:44;88.00;;;55.15;;
50393;SDS011;36308;46.312;25.288;2022-12-10T12:23:26;78.10;;;52.15;;
50393;SDS011;36308;46.312;25.288;2022-12-10T12:25:57;92.80;;;57.72;;
50393;SDS011;36308;46.312;25.288;2022-12-10T12:28:37;93.05;;;60.63;;
50393;SDS011;36308;46.312;25.288;2022-12-10T12:31:11;75.13;;;50.83;;
50393;SDS011;36308;46.312;25.288;2022-12-10T12:36:29;65.00;;;44.60;;
50393;SDS011;36308;46.312;25.288;2022-12-10T12:39:05;69.38;;;45.47;;
50393;SDS011;36308;46.312;25.288;2022-12-10T12:41:47;70.43;;;47.83;;
50393;SDS011;36308;46.312;25.288;2022-12-10T12:44:22;101.78;;;62.35;;
50393;SDS011;36308;46.312;25.288;2022-12-10T12:46:54;126.65;;;75.05;;
50393;SDS011;36308;46.312;25.288;2022-12-10T12:49:28;66.28;;;45.55;;
50393;SDS011;36308;46.312;25.288;2022-12-10T12:54:30;49.38;;;37.75;;
50393;SDS011;36308;46.312;25.288;2022-12-10T12:56:59;46.20;;;31.92;;
50393;SDS011;36308;46.312;25.288;2022-12-10T13:02:44;63.13;;;39.35;;
50393;SDS011;36308;46.312;25.288;2022-12-10T13:05:20;52.63;;;39.67;;
50393;SDS011;36308;46.312;25.288;2022-12-10T13:10:44;58.28;;;37.33;;
50393;SDS011;36308;46.312;25.288;2022-12-10T13:32:18;48.75;;;30.95;;
50393;SDS011;36308;46.312;25.288;2022-12-10T13:42:57;37.50;;;25.60;;
50393;SDS011;36308;46.312;25.288;2022-12-10T13:49:01;41.75;;;28.88;;
50393;SDS011;36308;46.312;25.288;2022-12-10T14:07:37;67.60;;;44.72;;
50393;SDS011;36308;46.312;25.288;2022-12-10T14:10:05;108.30;;;69.15;;
50393;SDS011;36308;46.312;25.288;2022-12-10T14:12:41;96.28;;;61.30;;
50393;SDS011;36308;46.312;25.288;2022-12-10T14:15:14;93.32;;;59.20;;
50393;SDS011;36308;46.312;25.288;2022-12-10T14:17:41;116.30;;;77.28;;
50393;SDS011;36308;46.312;25.288;2022-12-10T14:20:14;128.80;;;81.80;;
50393;SDS011;36308;46.312;25.288;2022-12-10T14:22:47;125.00;;;76.15;;
50393;SDS011;36308;46.312;25.288;2022-12-10T14:25:19;111.40;;;63.78;;
50393;SDS011;36308;46.312;25.288;2022-12-10T14:27:50;85.97;;;57.83;;
50393;SDS011;36308;46.312;25.288;2022-12-10T14:30:18;83.45;;;55.08;;
50393;SDS011;36308;46.312;25.288;2022-12-10T14:32:46;67.97;;;46.25;;
50393;SDS011;36308;46.312;25.288;2022-12-10T14:35:14;66.57;;;44.90;;
50393;SDS011;36308;46.312;25.288;2022-12-10T14:37:50;59.35;;;37.85;;
50393;SDS011;36308;46.312;25.288;2022-12-10T14:40:19;55.22;;;35.65;;
50393;SDS011;36308;46.312;25.288;2022-12-10T14:42:48;55.10;;;37.17;;
50393;SDS011;36308;46.312;25.288;2022-12-10T14:45:15;67.63;;;42.67;;
50393;SDS011;36308;46.312;25.288;2022-12-10T14:47:41;74.72;;;46.60;;
50393;SDS011;36308;46.312;25.288;2022-12-10T14:50:14;71.07;;;47.08;;
50393;SDS011;36308;46.312;25.288;2022-12-10T14:52:51;78.75;;;52.58;;
50393;SDS011;36308;46.312;25.288;2022-12-10T14:55:19;71.88;;;46.20;;
50393;SDS011;36308;46.312;25.288;2022-12-10T14:57:49;68.78;;;44.63;;
50393;SDS011;36308;46.312;25.288;2022-12-10T15:00:19;64.53;;;42.80;;
50393;SDS011;36308;46.312;25.288;2022-12-10T15:02:49;57.13;;;39.72;;
50393;SDS011;36308;46.312;25.288;2022-12-10T15:07:50;74.03;;;45.90;;
50393;SDS011;36308;46.312;25.288;2022-12-10T15:10:20;70.70;;;46.22;;
50393;SDS011;36308;46.312;25.288;2022-12-10T15:12:50;71.75;;;45.42;;
50393;SDS011;36308;46.312;25.288;2022-12-10T15:18:13;87.32;;;54.47;;
50393;SDS011;36308;46.312;25.288;2022-12-10T15:28:36;94.00;;;55.67;;
50393;SDS011;36308;46.312;25.288;2022-12-10T15:31:10;94.88;;;55.72;;
50393;SDS011;36308;46.312;25.288;2022-12-10T15:33:55;82.15;;;53.50;;
50393;SDS011;36308;46.312;25.288;2022-12-10T15:36:49;187.23;;;90.97;;
50393;SDS011;36308;46.312;25.288;2022-12-10T15:39:21;184.55;;;86.80;;
50393;SDS011;36308;46.312;25.288;2022-12-10T15:42:08;114.53;;;55.58;;
